Time;durP1;ratioP1;P1;durP2;ratioP2;P2;SDS_P1;SDS_P2;PMS_P1;PMS_P2;Temp;Humidity;BMP_temperature;BMP_pressure;BME280_temperature;BME280_humidity;BME280_pressure;Samples;Min_cycle;Max_cycle;Signal;HPM_P1;HPM_P2
2022/01/07 00:01:28;;;;;;;10.52;3.05;;;;;;;;;;4787741;28;20408;-69
2022/01/07 00:03:55;;;;;;;9.65;3.00;;;;;;;;;;4788802;28;20069;-70
2022/01/07 00:06:23;;;;;;;9.10;2.55;;;;;;;;;;4765384;28;20149;-69
2022/01/07 00:08:49;;;;;;;8.52;3.25;;;;;;;;;;4754093;28;21630;-68
2022/01/07 00:11:18;;;;;;;13.20;4.90;;;;;;;;;;4785395;28;20592;-68
2022/01/07 00:13:47;;;;;;;12.27;4.85;;;;;;;;;;4787166;28;20172;-68
2022/01/07 00:16:16;;;;;;;16.38;7.53;;;;;;;;;;4785633;28;20038;-70
2022/01/07 00:18:44;;;;;;;14.77;6.90;;;;;;;;;;4782997;28;20115;-68
2022/01/07 00:21:12;;;;;;;17.00;7.05;;;;;;;;;;4766734;28;20120;-68
2022/01/07 00:23:39;;;;;;;13.82;6.32;;;;;;;;;;4787960;28;20113;-68
2022/01/07 00:26:07;;;;;;;11.50;5.00;;;;;;;;;;4765748;28;20049;-69
2022/01/07 00:28:34;;;;;;;12.07;4.40;;;;;;;;;;4769969;28;22856;-70
2022/01/07 00:31:02;;;;;;;9.48;3.95;;;;;;;;;;4765107;28;20745;-70
2022/01/07 00:33:28;;;;;;;10.30;3.78;;;;;;;;;;4769887;28;20044;-70
2022/01/07 00:35:56;;;;;;;12.52;5.05;;;;;;;;;;4787960;28;20042;-70
2022/01/07 00:38:27;;;;;;;10.60;4.72;;;;;;;;;;4786714;28;20060;-69
2022/01/07 00:40:55;;;;;;;10.52;4.45;;;;;;;;;;4786897;28;20311;-68
2022/01/07 00:43:24;;;;;;;12.35;4.40;;;;;;;;;;4783423;28;20291;-68
2022/01/07 00:45:52;;;;;;;10.98;4.43;;;;;;;;;;4784648;28;20072;-68
2022/01/07 00:48:19;;;;;;;12.75;4.45;;;;;;;;;;4769170;28;20045;-69
2022/01/07 00:50:45;;;;;;;10.05;4.50;;;;;;;;;;4787542;28;20081;-69
2022/01/07 00:53:16;;;;;;;10.43;4.18;;;;;;;;;;4769180;28;20680;-68
2022/01/07 00:55:44;;;;;;;8.43;3.42;;;;;;;;;;4781027;28;20034;-68
2022/01/07 00:58:11;;;;;;;10.73;4.60;;;;;;;;;;4791713;28;20128;-69
2022/01/07 01:00:37;;;;;;;;;;;;;;;;;;4786960;28;20031;-70
2022/01/07 01:03:04;;;;;;;10.95;4.38;;;;;;;;;;4768298;28;19936;-68
2022/01/07 01:05:35;;;;;;;13.15;5.57;;;;;;;;;;4787273;28;20618;-70
2022/01/07 01:08:04;;;;;;;12.80;4.90;;;;;;;;;;4748983;28;20181;-69
2022/01/07 01:10:31;;;;;;;11.80;4.75;;;;;;;;;;4759874;28;20051;-69
2022/01/07 01:12:58;;;;;;;11.70;4.28;;;;;;;;;;4747923;28;20066;-68
2022/01/07 01:15:31;;;;;;;13.05;4.68;;;;;;;;;;4762085;28;20657;-68
2022/01/07 01:18:00;;;;;;;10.73;4.03;;;;;;;;;;4762872;28;20065;-68
2022/01/07 01:20:28;;;;;;;8.85;3.42;;;;;;;;;;4759253;28;20039;-68
2022/01/07 01:22:56;;;;;;;9.68;3.30;;;;;;;;;;4763212;28;20130;-71
2022/01/07 01:25:22;;;;;;;11.15;3.30;;;;;;;;;;4746364;28;20038;-70
2022/01/07 01:27:49;;;;;;;9.38;3.15;;;;;;;;;;4761202;28;20769;-71
2022/01/07 01:30:17;;;;;;;9.57;3.20;;;;;;;;;;4764053;28;20077;-68
2022/01/07 01:32:48;;;;;;;10.40;3.10;;;;;;;;;;4752466;28;20770;-68
2022/01/07 01:35:17;;;;;;;11.88;3.22;;;;;;;;;;4763161;28;20047;-68
2022/01/07 01:37:46;;;;;;;9.25;3.00;;;;;;;;;;4749138;28;20047;-70
2022/01/07 01:40:13;;;;;;;11.77;3.30;;;;;;;;;;4745369;28;20138;-68
2022/01/07 01:42:41;;;;;;;10.48;3.30;;;;;;;;;;4762306;28;20129;-68
2022/01/07 01:45:11;;;;;;;10.57;3.10;;;;;;;;;;4753777;28;20061;-71
2022/01/07 01:47:39;;;;;;;10.07;3.00;;;;;;;;;;4794219;28;20173;-68
2022/01/07 01:50:06;;;;;;;8.55;2.88;;;;;;;;;;4765090;28;20067;-69
2022/01/07 01:52:34;;;;;;;9.20;2.75;;;;;;;;;;4764106;28;20102;-69
2022/01/07 01:55:00;;;;;;;9.82;2.90;;;;;;;;;;4764539;28;20050;-69
2022/01/07 01:57:28;;;;;;;9.88;3.40;;;;;;;;;;4744198;28;22106;-69
2022/01/07 01:59:56;;;;;;;10.35;2.92;;;;;;;;;;4762547;28;20166;-69
2022/01/07 02:02:23;;;;;;;10.80;2.85;;;;;;;;;;4785350;28;20060;-69
2022/01/07 02:04:50;;;;;;;9.15;2.70;;;;;;;;;;4765284;28;20041;-68
2022/01/07 02:07:16;;;;;;;12.70;3.50;;;;;;;;;;4789927;28;21764;-69
2022/01/07 02:09:42;;;;;;;11.75;3.33;;;;;;;;;;4784810;28;20084;-70
2022/01/07 02:12:11;;;;;;;10.05;3.00;;;;;;;;;;4786369;28;20134;-68
2022/01/07 02:14:50;;;;;;;10.30;3.28;;;;;;;;;;4785770;28;21559;-70
2022/01/07 02:17:18;;;;;;;10.85;3.05;;;;;;;;;;4784656;28;20165;-70
2022/01/07 02:19:47;;;;;;;9.65;3.05;;;;;;;;;;4785289;28;20035;-69
2022/01/07 02:22:19;;;;;;;8.95;2.67;;;;;;;;;;4785648;28;20045;-68
2022/01/07 02:24:55;;;;;;;9.43;3.20;;;;;;;;;;4780002;28;20149;-68
2022/01/07 02:27:23;;;;;;;11.65;2.90;;;;;;;;;;4762352;28;20141;-68
2022/01/07 02:29:51;;;;;;;10.02;2.35;;;;;;;;;;4759481;28;21997;-70
2022/01/07 02:32:22;;;;;;;8.52;2.47;;;;;;;;;;4760713;28;20082;-68
2022/01/07 02:34:49;;;;;;;8.95;2.42;;;;;;;;;;4759524;28;20046;-70
2022/01/07 02:37:17;;;;;;;9.18;2.45;;;;;;;;;;4755931;28;20603;-69
2022/01/07 02:39:45;;;;;;;10.30;2.50;;;;;;;;;;4762639;28;20031;-70
2022/01/07 02:42:13;;;;;;;7.95;2.50;;;;;;;;;;4759637;28;20038;-69
2022/01/07 02:44:41;;;;;;;9.20;2.70;;;;;;;;;;4759507;28;20038;-69
2022/01/07 02:47:09;;;;;;;13.00;2.85;;;;;;;;;;4761737;28;21202;-69
2022/01/07 02:49:36;;;;;;;11.23;2.72;;;;;;;;;;4750145;28;21274;-69
2022/01/07 02:52:06;;;;;;;9.15;2.47;;;;;;;;;;4757796;28;20416;-69
2022/01/07 02:54:35;;;;;;;10.23;2.70;;;;;;;;;;4761131;28;20795;-68
2022/01/07 02:57:01;;;;;;;9.80;2.90;;;;;;;;;;4730148;28;20134;-68
2022/01/07 02:59:28;;;;;;;14.27;2.75;;;;;;;;;;4759470;28;20085;-70
2022/01/07 03:01:57;;;;;;;11.35;2.55;;;;;;;;;;4740883;28;20043;-67
2022/01/07 03:04:27;;;;;;;8.23;2.33;;;;;;;;;;4738121;28;20043;-68
2022/01/07 03:06:56;;;;;;;9.10;2.33;;;;;;;;;;4752466;28;20191;-69
2022/01/07 03:09:23;;;;;;;10.20;2.33;;;;;;;;;;4752017;28;20226;-69
2022/01/07 03:11:54;;;;;;;9.77;2.30;;;;;;;;;;4743112;28;20043;-68
2022/01/07 03:14:22;;;;;;;10.02;2.47;;;;;;;;;;4736783;28;20785;-70
2022/01/07 03:16:48;;;;;;;11.30;2.60;;;;;;;;;;4760503;28;20047;-68
2022/01/07 03:19:16;;;;;;;8.85;2.08;;;;;;;;;;4765531;28;20030;-67
2022/01/07 03:21:44;;;;;;;10.32;2.20;;;;;;;;;;4764678;28;20178;-67
2022/01/07 03:24:13;;;;;;;10.25;2.03;;;;;;;;;;4764869;28;20056;-68
2022/01/07 03:26:39;;;;;;;9.00;2.10;;;;;;;;;;4760421;28;20061;-72
2022/01/07 03:29:07;;;;;;;11.60;2.53;;;;;;;;;;4762283;28;21183;-68
2022/01/07 03:31:39;;;;;;;9.05;2.05;;;;;;;;;;4765052;28;20173;-68
2022/01/07 03:34:07;;;;;;;10.45;2.42;;;;;;;;;;4764589;28;20070;-70
2022/01/07 03:36:35;;;;;;;8.63;1.90;;;;;;;;;;4763626;28;20062;-67
2022/01/07 03:39:03;;;;;;;8.90;2.22;;;;;;;;;;4759134;28;20054;-68
2022/01/07 03:41:29;;;;;;;10.55;2.13;;;;;;;;;;4765643;28;20031;-67
2022/01/07 03:43:57;;;;;;;8.13;2.00;;;;;;;;;;4764492;28;20455;-70
2022/01/07 03:46:25;;;;;;;12.02;2.25;;;;;;;;;;4761735;28;20822;-67
2022/01/07 03:48:54;;;;;;;10.27;2.40;;;;;;;;;;4747648;28;21442;-68
2022/01/07 03:51:22;;;;;;;9.93;2.38;;;;;;;;;;4766185;28;20644;-68
2022/01/07 03:53:51;;;;;;;9.50;2.40;;;;;;;;;;4768632;28;20438;-68
2022/01/07 03:56:18;;;;;;;10.93;2.05;;;;;;;;;;4768982;28;21275;-69
2022/01/07 03:58:46;;;;;;;9.50;1.77;;;;;;;;;;4769359;28;20074;-70
2022/01/07 04:01:15;;;;;;;11.07;2.60;;;;;;;;;;4767568;28;20066;-69
2022/01/07 04:03:42;;;;;;;9.10;2.17;;;;;;;;;;4764651;28;20030;-68
2022/01/07 04:06:09;;;;;;;;;;;;;;;;;;4764704;28;20112;-68
2022/01/07 04:08:37;;;;;;;10.32;2.50;;;;;;;;;;4768719;28;19980;-68
2022/01/07 04:11:06;;;;;;;11.25;2.38;;;;;;;;;;4763628;28;21078;-68
2022/01/07 04:13:33;;;;;;;10.82;2.78;;;;;;;;;;4768440;28;20042;-68
2022/01/07 04:15:59;;;;;;;12.05;2.67;;;;;;;;;;4760636;28;22085;-68
2022/01/07 04:18:25;;;;;;;10.05;2.70;;;;;;;;;;4765851;28;21156;-68
2022/01/07 04:20:51;;;;;;;9.82;2.40;;;;;;;;;;4763931;28;20131;-71
2022/01/07 04:23:17;;;;;;;10.05;2.33;;;;;;;;;;4764098;28;20330;-70
2022/01/07 04:25:45;;;;;;;10.38;2.60;;;;;;;;;;4762997;28;20543;-68
2022/01/07 04:28:12;;;;;;;10.07;2.42;;;;;;;;;;4756814;28;20031;-68
2022/01/07 04:30:41;;;;;;;10.82;2.50;;;;;;;;;;4763463;28;21003;-70
2022/01/07 04:33:13;;;;;;;10.35;2.33;;;;;;;;;;4762922;28;20241;-70
2022/01/07 04:35:42;;;;;;;9.32;2.10;;;;;;;;;;4765278;28;20038;-67
2022/01/07 04:38:08;;;;;;;8.95;2.00;;;;;;;;;;4762415;28;20035;-68
2022/01/07 04:40:37;;;;;;;8.50;2.10;;;;;;;;;;4759301;28;20059;-68
2022/01/07 04:43:07;;;;;;;8.63;1.98;;;;;;;;;;4760747;28;20049;-68
2022/01/07 04:45:37;;;;;;;11.20;2.30;;;;;;;;;;4762435;28;20359;-68
2022/01/07 04:48:05;;;;;;;9.85;1.73;;;;;;;;;;4765753;28;20105;-68
2022/01/07 04:50:32;;;;;;;8.95;2.10;;;;;;;;;;4765188;28;20462;-67
2022/01/07 04:53:00;;;;;;;9.82;2.38;;;;;;;;;;4761955;28;20883;-68
2022/01/07 04:55:29;;;;;;;9.90;2.47;;;;;;;;;;4765870;28;20031;-68
2022/01/07 04:57:57;;;;;;;10.10;2.50;;;;;;;;;;4768272;28;20039;-69
2022/01/07 05:00:24;;;;;;;10.05;2.53;;;;;;;;;;4762389;28;20606;-68
2022/01/07 05:02:50;;;;;;;10.15;2.30;;;;;;;;;;4762451;28;20061;-68
2022/01/07 05:05:18;;;;;;;;;;;;;;;;;;4763014;28;20035;-68
2022/01/07 05:07:45;;;;;;;9.18;2.10;;;;;;;;;;4787298;28;20592;-68
2022/01/07 05:10:15;;;;;;;9.80;2.63;;;;;;;;;;4754631;28;20047;-68
2022/01/07 05:12:45;;;;;;;10.00;2.50;;;;;;;;;;4752898;28;20186;-68
2022/01/07 05:15:13;;;;;;;9.38;2.65;;;;;;;;;;4736894;28;20195;-68
2022/01/07 05:17:42;;;;;;;10.60;2.35;;;;;;;;;;4747983;28;20039;-68
2022/01/07 05:20:09;;;;;;;9.07;2.53;;;;;;;;;;4733945;28;20593;-68
2022/01/07 05:22:35;;;;;;;8.68;2.15;;;;;;;;;;4753962;28;20126;-71
2022/01/07 05:25:01;;;;;;;;;;;;;;;;;;4752091;28;20917;-67
2022/01/07 05:27:28;;;;;;;10.32;2.40;;;;;;;;;;4763007;28;22175;-67
2022/01/07 05:29:57;;;;;;;8.25;2.35;;;;;;;;;;4748020;28;20413;-68
2022/01/07 05:32:25;;;;;;;10.25;2.30;;;;;;;;;;4751359;28;22362;-68
2022/01/07 05:34:51;;;;;;;11.63;2.97;;;;;;;;;;4736207;28;20059;-70
2022/01/07 05:37:17;;;;;;;;;;;;;;;;;;4752637;28;20075;-67
2022/01/07 05:39:44;;;;;;;11.52;3.58;;;;;;;;;;4752432;28;22194;-68
2022/01/07 05:42:10;;;;;;;11.15;3.03;;;;;;;;;;4748597;28;20039;-68
2022/01/07 05:44:37;;;;;;;11.88;3.00;;;;;;;;;;4761913;28;20727;-68
2022/01/07 05:47:05;;;;;;;7.97;2.10;;;;;;;;;;4735357;28;20697;-68
2022/01/07 05:49:31;;;;;;;11.38;2.42;;;;;;;;;;4751916;28;22291;-68
2022/01/07 05:51:57;;;;;;;9.52;2.22;;;;;;;;;;4753413;28;21870;-68
2022/01/07 05:54:25;;;;;;;11.35;2.47;;;;;;;;;;4748214;28;20481;-68
2022/01/07 05:56:54;;;;;;;7.78;2.20;;;;;;;;;;4752214;28;20031;-68
2022/01/07 05:59:22;;;;;;;11.73;2.55;;;;;;;;;;4749368;28;20074;-69
2022/01/07 06:01:48;;;;;;;10.18;2.88;;;;;;;;;;4761398;28;21483;-68
2022/01/07 06:04:16;;;;;;;9.80;3.40;;;;;;;;;;4745067;28;20351;-68
2022/01/07 06:06:44;;;;;;;13.60;3.30;;;;;;;;;;4756041;28;20038;-69
2022/01/07 06:09:10;;;;;;;13.38;3.10;;;;;;;;;;4761591;28;20600;-70
2022/01/07 06:11:36;;;;;;;;;;;;;;;;;;4762491;28;20348;-69
2022/01/07 06:14:02;;;;;;;9.15;2.20;;;;;;;;;;4765615;28;20704;-69
2022/01/07 06:16:30;;;;;;;11.23;2.58;;;;;;;;;;4760774;28;20105;-69
2022/01/07 06:19:02;;;;;;;11.85;2.50;;;;;;;;;;4763668;28;20121;-69
2022/01/07 06:21:30;;;;;;;11.88;2.95;;;;;;;;;;4762822;28;20043;-69
2022/01/07 06:23:58;;;;;;;8.57;2.33;;;;;;;;;;4761004;28;20126;-68
2022/01/07 06:26:25;;;;;;;10.27;2.45;;;;;;;;;;4763104;28;20607;-68
2022/01/07 06:28:54;;;;;;;;;;;;;;;;;;4756848;28;21553;-68
2022/01/07 06:31:22;;;;;;;11.10;3.20;;;;;;;;;;4761622;28;19918;-68
2022/01/07 06:33:48;;;;;;;10.50;2.65;;;;;;;;;;4762244;28;22343;-68
2022/01/07 06:36:17;;;;;;;12.50;2.65;;;;;;;;;;4759553;28;20432;-68
2022/01/07 06:38:43;;;;;;;9.98;2.50;;;;;;;;;;4763641;28;20063;-68
2022/01/07 06:41:11;;;;;;;8.90;1.90;;;;;;;;;;4757076;28;20034;-68
2022/01/07 06:43:38;;;;;;;7.35;2.05;;;;;;;;;;4761327;28;20035;-68
2022/01/07 06:46:07;;;;;;;9.88;2.30;;;;;;;;;;4763456;28;20666;-68
2022/01/07 06:48:36;;;;;;;10.85;2.50;;;;;;;;;;4763191;28;20031;-68
2022/01/07 06:51:02;;;;;;;10.90;2.65;;;;;;;;;;4765772;28;20039;-68
2022/01/07 06:53:30;;;;;;;;;;;;;;;;;;4758942;28;22006;-68
2022/01/07 06:55:59;;;;;;;9.95;3.03;;;;;;;;;;4765250;28;20273;-68
2022/01/07 06:58:26;;;;;;;10.73;2.40;;;;;;;;;;4766265;28;22012;-68
2022/01/07 07:00:52;;;;;;;8.65;2.38;;;;;;;;;;4756858;28;21304;-70
2022/01/07 07:03:20;;;;;;;11.18;2.65;;;;;;;;;;4761013;28;20177;-70
2022/01/07 07:05:48;;;;;;;11.05;3.10;;;;;;;;;;4761790;28;20165;-68
2022/01/07 07:08:21;;;;;;;11.30;3.13;;;;;;;;;;4760192;28;20050;-68
2022/01/07 07:10:47;;;;;;;13.75;3.70;;;;;;;;;;4781787;28;20043;-68
2022/01/07 07:13:16;;;;;;;11.32;3.80;;;;;;;;;;4760674;28;20515;-68
2022/01/07 07:15:43;;;;;;;11.55;4.32;;;;;;;;;;4741568;28;20058;-68
2022/01/07 07:18:14;;;;;;;12.27;4.78;;;;;;;;;;4735442;28;20098;-69
2022/01/07 07:20:47;;;;;;;14.27;5.45;;;;;;;;;;4723353;29;20043;-68
2022/01/07 07:23:13;;;;;;;13.85;5.15;;;;;;;;;;4733033;28;20035;-68
2022/01/07 07:25:41;;;;;;;17.13;6.45;;;;;;;;;;4745788;28;20692;-69
2022/01/07 07:28:10;;;;;;;15.40;6.53;;;;;;;;;;4728619;28;20082;-68
2022/01/07 07:30:44;;;;;;;17.67;6.80;;;;;;;;;;4731294;29;20043;-68
2022/01/07 07:38:45;;;;;;;14.45;5.50;;;;;;;;;;4743736;28;21337;-68
2022/01/07 07:41:12;;;;;;;14.70;5.28;;;;;;;;;;4744036;28;22345;-68
2022/01/07 07:43:41;;;;;;;13.85;5.38;;;;;;;;;;4742193;28;20106;-69
2022/01/07 07:46:14;;;;;;;16.02;5.43;;;;;;;;;;4739608;28;20316;-68
2022/01/07 07:48:42;;;;;;;12.98;4.97;;;;;;;;;;4737639;28;20039;-68
2022/01/07 07:51:10;;;;;;;12.13;4.18;;;;;;;;;;4743720;28;20799;-69
2022/01/07 07:53:38;;;;;;;12.93;4.55;;;;;;;;;;4742310;28;20456;-69
2022/01/07 07:56:06;;;;;;;14.43;4.25;;;;;;;;;;4741138;28;20067;-68
2022/01/07 07:58:34;;;;;;;13.88;4.30;;;;;;;;;;4712288;29;20047;-68
2022/01/07 08:01:03;;;;;;;10.05;3.90;;;;;;;;;;4758407;28;20048;-68
2022/01/07 08:03:29;;;;;;;12.32;3.72;;;;;;;;;;4751513;28;20138;-68
2022/01/07 08:06:06;;;;;;;11.00;3.42;;;;;;;;;;4762956;28;20160;-70
2022/01/07 08:08:56;;;;;;;10.57;3.08;;;;;;;;;;4763724;28;21757;-68
2022/01/07 08:11:26;;;;;;;11.40;3.40;;;;;;;;;;4764337;28;20039;-68
2022/01/07 08:16:40;;;;;;;13.73;4.05;;;;;;;;;;4761764;28;21392;-68
2022/01/07 08:19:06;;;;;;;12.45;4.10;;;;;;;;;;4766973;28;20027;-68
2022/01/07 08:21:32;;;;;;;13.55;3.80;;;;;;;;;;4764751;28;21709;-68
2022/01/07 08:24:00;;;;;;;14.88;4.80;;;;;;;;;;4766318;28;20110;-68
2022/01/07 08:26:44;;;;;;;13.90;4.57;;;;;;;;;;4764762;28;20790;-68
2022/01/07 08:29:37;;;;;;;12.00;4.25;;;;;;;;;;4761316;28;20792;-68
2022/01/07 08:35:07;;;;;;;14.02;6.38;;;;;;;;;;4720615;29;20171;-69
2022/01/07 08:37:33;;;;;;;;;;;;;;;;;;4724128;29;20406;-68
2022/01/07 08:40:01;;;;;;;17.48;8.07;;;;;;;;;;4705743;29;20722;-68
2022/01/07 08:42:33;;;;;;;18.33;8.57;;;;;;;;;;4725696;29;20044;-68
2022/01/07 08:45:00;;;;;;;16.52;8.13;;;;;;;;;;4723669;29;20109;-68
2022/01/07 08:47:31;;;;;;;19.33;8.75;;;;;;;;;;4719089;29;20216;-68
2022/01/07 08:50:00;;;;;;;20.30;8.38;;;;;;;;;;4697073;29;20059;-68
2022/01/07 08:52:28;;;;;;;17.75;7.53;;;;;;;;;;4707261;29;20490;-68
2022/01/07 08:54:54;;;;;;;16.60;7.65;;;;;;;;;;4723882;29;20032;-70
2022/01/07 08:57:24;;;;;;;17.85;7.55;;;;;;;;;;4720820;29;20095;-70
2022/01/07 08:59:52;;;;;;;17.55;8.02;;;;;;;;;;4717858;29;20074;-70
2022/01/07 09:02:22;;;;;;;17.50;8.02;;;;;;;;;;4709239;29;20036;-70
2022/01/07 09:04:50;;;;;;;17.23;7.20;;;;;;;;;;4706464;29;20036;-68
2022/01/07 09:07:19;;;;;;;14.75;5.82;;;;;;;;;;4707400;29;20107;-69
2022/01/07 09:09:48;;;;;;;15.38;6.10;;;;;;;;;;4750532;28;20049;-68
2022/01/07 09:12:17;;;;;;;14.18;5.70;;;;;;;;;;4758176;28;20031;-68
2022/01/07 09:14:45;;;;;;;13.32;4.90;;;;;;;;;;4762688;28;20739;-70
2022/01/07 09:17:24;;;;;;;12.55;5.07;;;;;;;;;;4781409;28;20143;-70
2022/01/07 09:19:51;;;;;;;13.18;5.05;;;;;;;;;;4762555;28;20145;-68
2022/01/07 09:22:24;;;;;;;11.82;4.85;;;;;;;;;;4784373;28;20128;-69
2022/01/07 09:24:52;;;;;;;15.38;4.78;;;;;;;;;;4744731;28;20558;-68
2022/01/07 09:27:21;;;;;;;15.85;5.07;;;;;;;;;;4756817;28;20078;-69
2022/01/07 09:29:51;;;;;;;13.75;5.45;;;;;;;;;;4775783;28;20039;-69
2022/01/07 09:32:17;;;;;;;17.20;7.47;;;;;;;;;;4738657;28;20047;-68
2022/01/07 09:34:44;;;;;;;;;;;;;;;;;;4738556;28;20050;-68
2022/01/07 09:37:13;;;;;;;17.67;7.55;;;;;;;;;;4740879;28;20028;-69
2022/01/07 09:39:42;;;;;;;15.05;6.47;;;;;;;;;;4736103;28;20047;-69
2022/01/07 09:42:11;;;;;;;15.80;7.10;;;;;;;;;;4739640;28;20206;-68
2022/01/07 09:44:42;;;;;;;15.55;6.03;;;;;;;;;;4738862;28;22625;-68
2022/01/07 09:47:11;;;;;;;17.63;7.03;;;;;;;;;;4723797;28;22527;-69
2022/01/07 09:49:41;;;;;;;14.60;6.80;;;;;;;;;;4740116;28;20036;-69
2022/01/07 09:52:13;;;;;;;15.65;6.80;;;;;;;;;;4686201;29;20136;-69
2022/01/07 09:54:42;;;;;;;16.80;7.28;;;;;;;;;;4691905;29;20072;-69
2022/01/07 09:57:09;;;;;;;16.65;8.60;;;;;;;;;;4683840;29;20146;-69
2022/01/07 09:59:42;;;;;;;16.10;9.05;;;;;;;;;;4689474;29;20060;-69
2022/01/07 10:02:11;;;;;;;17.45;9.30;;;;;;;;;;4690980;29;20049;-69
2022/01/07 10:04:42;;;;;;;17.17;9.40;;;;;;;;;;4687357;29;20032;-69
2022/01/07 10:07:16;;;;;;;20.80;10.15;;;;;;;;;;4698515;29;20308;-70
2022/01/07 10:10:02;;;;;;;15.93;8.40;;;;;;;;;;4692188;29;20029;-69
2022/01/07 10:12:31;;;;;;;16.60;8.25;;;;;;;;;;4689237;29;20091;-69
2022/01/07 10:15:18;;;;;;;14.25;6.28;;;;;;;;;;4682830;29;20658;-69
2022/01/07 10:18:09;;;;;;;13.48;6.32;;;;;;;;;;4691529;29;20471;-69
2022/01/07 10:20:49;;;;;;;14.35;6.30;;;;;;;;;;4695966;29;20190;-68
2022/01/07 10:23:24;;;;;;;12.43;4.90;;;;;;;;;;4688461;29;20047;-68
2022/01/07 10:25:54;;;;;;;13.38;6.00;;;;;;;;;;4687816;29;20080;-69
2022/01/07 10:28:45;;;;;;;15.25;6.35;;;;;;;;;;4692208;29;20217;-69
2022/01/07 10:31:25;;;;;;;14.15;6.20;;;;;;;;;;4675611;29;20040;-69
2022/01/07 10:33:54;;;;;;;11.82;5.28;;;;;;;;;;4691477;29;20781;-69
2022/01/07 10:36:29;;;;;;;11.10;4.28;;;;;;;;;;4690990;29;20040;-69
2022/01/07 10:42:00;;;;;;;17.67;10.10;;;;;;;;;;4734301;28;22464;-69
2022/01/07 10:44:27;;;;;;;17.20;9.55;;;;;;;;;;4761664;28;20333;-70
2022/01/07 10:46:54;;;;;;;19.38;11.15;;;;;;;;;;4775243;28;20060;-69
2022/01/07 10:49:32;;;;;;;12.07;5.93;;;;;;;;;;4781079;28;20483;-68
2022/01/07 10:52:05;;;;;;;14.75;6.40;;;;;;;;;;4791482;28;20121;-66
2022/01/07 10:54:31;;;;;;;14.20;6.32;;;;;;;;;;4747886;28;20061;-66
2022/01/07 10:56:58;;;;;;;12.80;5.90;;;;;;;;;;4781105;28;21032;-69
2022/01/07 10:59:26;;;;;;;12.55;5.13;;;;;;;;;;4785896;28;20125;-65
2022/01/07 11:01:59;;;;;;;10.75;3.92;;;;;;;;;;4786787;28;20045;-68
2022/01/07 11:04:30;;;;;;;14.30;7.53;;;;;;;;;;4785997;28;20057;-68
2022/01/07 11:06:58;;;;;;;9.05;3.00;;;;;;;;;;4767157;28;20022;-67
2022/01/07 11:09:24;;;;;;;13.05;6.10;;;;;;;;;;4780618;28;20887;-67
2022/01/07 11:11:52;;;;;;;10.27;3.50;;;;;;;;;;4773637;28;20096;-67
2022/01/07 11:14:21;;;;;;;11.60;5.32;;;;;;;;;;4785459;28;20062;-68
2022/01/07 11:16:50;;;;;;;8.40;2.85;;;;;;;;;;4784188;28;20015;-66
2022/01/07 11:19:22;;;;;;;9.27;3.40;;;;;;;;;;4783959;28;20450;-64
2022/01/07 11:21:53;;;;;;;8.35;2.97;;;;;;;;;;4762405;28;20156;-66
2022/01/07 11:24:56;;;;;;;8.52;2.72;;;;;;;;;;4784112;28;21316;-65
2022/01/07 11:27:27;;;;;;;8.13;2.33;;;;;;;;;;4692190;29;20077;-65
2022/01/07 11:29:57;;;;;;;5.80;1.40;;;;;;;;;;4679918;29;20068;-66
2022/01/07 11:32:30;;;;;;;5.13;1.50;;;;;;;;;;4694809;29;20051;-68
2022/01/07 11:35:18;;;;;;;5.15;1.80;;;;;;;;;;4691943;29;20048;-67
2022/01/07 11:37:50;;;;;;;7.07;2.10;;;;;;;;;;4692105;29;20048;-68
2022/01/07 11:40:34;;;;;;;8.05;3.08;;;;;;;;;;4688711;29;20048;-68
2022/01/07 11:43:06;;;;;;;8.80;3.80;;;;;;;;;;4690882;29;20151;-69
2022/01/07 11:45:39;;;;;;;9.13;3.95;;;;;;;;;;4694145;29;20769;-69
2022/01/07 11:48:14;;;;;;;9.80;4.78;;;;;;;;;;4691862;29;20157;-69
2022/01/07 11:51:01;;;;;;;9.85;3.92;;;;;;;;;;4693238;29;20793;-70
2022/01/07 11:53:47;;;;;;;8.80;3.83;;;;;;;;;;4693360;29;20742;-72
2022/01/07 11:56:16;;;;;;;9.15;3.35;;;;;;;;;;4693068;29;20051;-70
2022/01/07 11:58:55;;;;;;;8.93;3.50;;;;;;;;;;4675492;29;20091;-70
2022/01/07 12:01:42;;;;;;;10.75;3.55;;;;;;;;;;4726327;28;20146;-70
2022/01/07 12:04:23;;;;;;;8.60;3.45;;;;;;;;;;4765720;28;20766;-70
2022/01/07 12:06:50;;;;;;;9.68;4.00;;;;;;;;;;4763345;28;20088;-71
2022/01/07 12:09:25;;;;;;;10.27;4.35;;;;;;;;;;4767043;28;20193;-70
2022/01/07 12:11:53;;;;;;;9.73;4.20;;;;;;;;;;4765209;28;20783;-70
2022/01/07 12:14:25;;;;;;;13.20;6.32;;;;;;;;;;4763542;28;20804;-70
2022/01/07 12:16:58;;;;;;;10.07;4.78;;;;;;;;;;4759089;28;20055;-71
2022/01/07 12:19:40;;;;;;;8.35;3.03;;;;;;;;;;4767461;28;20946;-70
2022/01/07 12:22:11;;;;;;;10.20;4.07;;;;;;;;;;4765352;28;22656;-70
2022/01/07 12:24:38;;;;;;;9.15;3.92;;;;;;;;;;4763509;28;20176;-70
2022/01/07 12:27:08;;;;;;;10.02;4.20;;;;;;;;;;4768245;28;20039;-71
2022/01/07 12:29:37;;;;;;;9.57;3.63;;;;;;;;;;4762005;28;20526;-70
2022/01/07 12:32:07;;;;;;;9.52;3.80;;;;;;;;;;4765913;28;20062;-70
2022/01/07 12:34:35;;;;;;;9.90;3.90;;;;;;;;;;4766268;28;20047;-71
2022/01/07 12:37:05;;;;;;;8.85;3.72;;;;;;;;;;4763450;28;20042;-70
2022/01/07 12:39:34;;;;;;;10.60;3.63;;;;;;;;;;4767274;28;20125;-70
2022/01/07 12:42:03;;;;;;;8.70;3.30;;;;;;;;;;4762173;28;20485;-70
2022/01/07 12:44:35;;;;;;;8.75;3.10;;;;;;;;;;4766986;28;20030;-70
2022/01/07 12:47:02;;;;;;;8.48;3.50;;;;;;;;;;4776145;28;20050;-69
2022/01/07 12:49:45;;;;;;;8.55;3.38;;;;;;;;;;4766210;28;22353;-69
2022/01/07 12:52:22;;;;;;;8.93;3.38;;;;;;;;;;4784186;28;20265;-69
2022/01/07 12:55:00;;;;;;;8.23;3.00;;;;;;;;;;4785401;28;20035;-70
2022/01/07 12:57:36;;;;;;;10.32;3.63;;;;;;;;;;4777767;28;20042;-69
2022/01/07 13:00:11;;;;;;;7.28;2.30;;;;;;;;;;4780851;28;20105;-69
2022/01/07 13:02:38;;;;;;;5.90;1.73;;;;;;;;;;4782889;28;20589;-68
2022/01/07 13:05:10;;;;;;;6.47;1.95;;;;;;;;;;4784318;28;20027;-70
2022/01/07 13:07:43;;;;;;;6.35;2.25;;;;;;;;;;4783499;28;20358;-71
2022/01/07 13:10:11;;;;;;;7.22;2.60;;;;;;;;;;4782171;28;20120;-71
2022/01/07 13:12:40;;;;;;;6.22;2.28;;;;;;;;;;4763810;28;22137;-71
2022/01/07 13:15:07;;;;;;;7.03;2.25;;;;;;;;;;4780942;28;20045;-71
2022/01/07 13:17:34;;;;;;;6.32;2.10;;;;;;;;;;4767043;28;21151;-70
2022/01/07 13:20:02;;;;;;;7.50;2.10;;;;;;;;;;4765723;28;20054;-70
2022/01/07 13:22:31;;;;;;;7.28;2.75;;;;;;;;;;4767117;28;20147;-72
2022/01/07 13:24:58;;;;;;;8.15;2.63;;;;;;;;;;4780149;28;20054;-70
2022/01/07 13:27:26;;;;;;;7.10;2.67;;;;;;;;;;4784110;28;20042;-71
2022/01/07 13:29:55;;;;;;;7.63;2.70;;;;;;;;;;4782337;28;20140;-71
2022/01/07 13:32:28;;;;;;;8.23;2.75;;;;;;;;;;4783725;28;20035;-70
2022/01/07 13:35:04;;;;;;;7.28;2.38;;;;;;;;;;4766200;28;20038;-71
2022/01/07 13:37:32;;;;;;;7.00;2.22;;;;;;;;;;4778668;28;20031;-70
2022/01/07 13:40:00;;;;;;;7.47;2.25;;;;;;;;;;4765002;28;20049;-70
2022/01/07 13:42:34;;;;;;;8.63;3.05;;;;;;;;;;4784276;28;20713;-71
2022/01/07 13:45:06;;;;;;;6.43;1.70;;;;;;;;;;4783878;28;20034;-70
2022/01/07 13:47:38;;;;;;;6.78;1.77;;;;;;;;;;4761479;28;20090;-71
2022/01/07 13:50:22;;;;;;;6.95;2.13;;;;;;;;;;4761348;28;20031;-70
2022/01/07 13:52:49;;;;;;;6.10;1.80;;;;;;;;;;4759663;28;20039;-70
2022/01/07 13:55:39;;;;;;;6.85;1.70;;;;;;;;;;4764616;28;20510;-68
2022/01/07 13:58:08;;;;;;;5.53;1.73;;;;;;;;;;4764541;28;20031;-69
2022/01/07 14:00:37;;;;;;;6.07;1.60;;;;;;;;;;4763095;28;20746;-68
2022/01/07 14:03:04;;;;;;;5.57;1.52;;;;;;;;;;4763235;28;20355;-68
2022/01/07 14:05:34;;;;;;;5.28;1.65;;;;;;;;;;4764155;28;20067;-69
2022/01/07 14:08:01;;;;;;;7.20;2.15;;;;;;;;;;4758729;28;21536;-70
2022/01/07 14:10:35;;;;;;;7.20;2.50;;;;;;;;;;4762568;28;20694;-69
2022/01/07 14:13:09;;;;;;;9.90;2.78;;;;;;;;;;4764096;28;20047;-68
2022/01/07 14:15:43;;;;;;;6.90;2.10;;;;;;;;;;4765005;28;20150;-70
2022/01/07 14:18:19;;;;;;;5.97;1.70;;;;;;;;;;4763532;28;20035;-68
2022/01/07 14:20:56;;;;;;;5.50;1.55;;;;;;;;;;4757861;28;20046;-68
2022/01/07 14:23:29;;;;;;;6.55;1.52;;;;;;;;;;4754736;28;20157;-68
2022/01/07 14:26:06;;;;;;;7.20;2.30;;;;;;;;;;4764461;28;22321;-69
2022/01/07 14:28:39;;;;;;;7.43;2.40;;;;;;;;;;4760175;28;20049;-69
2022/01/07 14:31:07;;;;;;;6.28;2.50;;;;;;;;;;4762120;28;20169;-69
2022/01/07 14:33:36;;;;;;;7.43;2.50;;;;;;;;;;4745124;28;20107;-69
2022/01/07 14:36:05;;;;;;;6.93;2.17;;;;;;;;;;4759127;28;20027;-69
2022/01/07 14:38:34;;;;;;;6.35;2.00;;;;;;;;;;4760794;28;20047;-69
2022/01/07 14:41:00;;;;;;;6.90;2.20;;;;;;;;;;4753010;28;20701;-70
2022/01/07 14:43:26;;;;;;;8.45;3.10;;;;;;;;;;4765922;28;20028;-70
2022/01/07 14:45:54;;;;;;;8.25;3.30;;;;;;;;;;4764244;28;20717;-69
2022/01/07 14:48:24;;;;;;;8.13;3.58;;;;;;;;;;4777521;28;20140;-69
2022/01/07 14:50:52;;;;;;;9.55;4.15;;;;;;;;;;4781612;28;20097;-69
2022/01/07 14:53:19;;;;;;;11.20;4.63;;;;;;;;;;4750594;28;20511;-69
2022/01/07 14:55:46;;;;;;;9.07;3.97;;;;;;;;;;4782767;28;20041;-71
2022/01/07 14:58:14;;;;;;;9.30;3.90;;;;;;;;;;4765028;28;20580;-71
2022/01/07 15:00:41;;;;;;;8.55;3.20;;;;;;;;;;4779051;28;20042;-71
2022/01/07 15:03:09;;;;;;;8.23;2.90;;;;;;;;;;4782153;28;20035;-71
2022/01/07 15:05:37;;;;;;;8.68;2.80;;;;;;;;;;4780054;28;20672;-71
2022/01/07 15:08:05;;;;;;;7.03;2.70;;;;;;;;;;4765026;28;20026;-71